Observations for CIAMPINO IT-AFB CV, Italy (LIRA)

LIRA 180650Z VRB02KT CAVOK 23/17 Q1015  
LIRA 180620Z 01004KT 340V050 CAVOK 22/17 Q1015  
LIRA 180550Z 01003KT 330V050 CAVOK 22/17 Q1014  
LIRA 180520Z VRB01KT CAVOK 21/16 Q1014  
LIRA 180450Z VRB01KT CAVOK 20/16 Q1014  
LIRA 180420Z 12004KT CAVOK 17/15 Q1014  
LIRA 180320Z 14002KT CAVOK 18/15 Q1014  
LIRA 180220Z 08003KT CAVOK 18/15 Q1013  
LIRA 180150Z VRB02KT CAVOK 18/17 Q1014  
LIRA 180120Z VRB01KT CAVOK 18/16 Q1014  
LIRA 180050Z VRB02KT CAVOK 19/17 Q1014  
LIRA 180020Z VRB01KT CAVOK 19/18 Q1014  
LIRA 172350Z VRB02KT CAVOK 20/18 Q1014  
LIRA 172320Z 20003KT 160V240 CAVOK 20/18 Q1014  
LIRA 172250Z VRB02KT CAVOK 21/18 Q1014  
LIRA 172220Z 14004KT 120V200 CAVOK 21/16 Q1014  
LIRA 172150Z VRB02KT CAVOK 21/17 Q1014  
LIRA 172120Z 13002KT CAVOK 21/17 Q1014  
LIRA 172050Z 13002KT CAVOK 22/17 Q1014  
LIRA 172020Z VRB01KT CAVOK 22/17 Q1014  
LIRA 171950Z VRB01KT CAVOK 23/18 Q1014  
LIRA 171920Z VRB02KT CAVOK 23/18 Q1013  
LIRA 171850Z 22004KT 190V270 CAVOK 23/16 Q1013  
LIRA 171750Z 24005KT 210V270 CAVOK 25/15 Q1013  
LIRA 171720Z 22006KT 190V250 9999 FEW070 26/13 Q1013
LIRA 171650Z 23005KT 190V280 CAVOK 27/13 Q1013  
LIRA 171620Z 23005KT 160V290 CAVOK 28/14 Q1013  
LIRA 171550Z 24007KT 200V280 CAVOK 28/14 Q1013  
LIRA 171520Z 22007KT 170V260 CAVOK 28/14 Q1013  
LIRA 171450Z 21007KT 170V270 CAVOK 27/14 Q1013  
LIRA 171420Z 22008KT 170V270 CAVOK 27/14 Q1013  
LIRA 171350Z 23008KT 190V270 CAVOK 28/16 Q1013  
LIRA 171320Z 21006KT 180V250 CAVOK 28/17 Q1013  
LIRA 171250Z 21006KT 150V260 CAVOK 28/17 Q1013  
LIRA 171220Z 20007KT 180V260 CAVOK 28/18 Q1013  
LIRA 171150Z 25006KT 180V290 CAVOK 28/17 Q1013  
LIRA 171120Z 24004KT 150V310 CAVOK 28/15 Q1014  
LIRA 171050Z 17004KT 100V250 CAVOK 28/15 Q1014  
LIRA 171020Z VRB04KT CAVOK 28/14 Q1014  
LIRA 170950Z VRB02KT CAVOK 27/15 Q1014  
LIRA 170920Z VRB03KT CAVOK 26/15 Q1014  
LIRA 170850Z VRB03KT CAVOK 25/14 Q1014  
LIRA 170820Z VRB02KT CAVOK 24/15 Q1014  
LIRA 170750Z VRB03KT CAVOK 23/15 Q1014  
LIRA 170720Z VRB02KT CAVOK 23/15 Q1015  
LIRA 170650Z VRB02KT CAVOK 21/16 Q1015